Beallsville, OH

9:39 AM EDT on August 01, 2014 (GMT -0400)
Washington County (KAFJ) Elev 1184 ft | 40.14 °N, 80.29 °W | Change Station

Current weather conditions updated 4 minutes ago

Clear
Clear
66 °F
Feels Like 66 °F
N
0
Wind Variable Wind from North

Today is forecast to be Warmer than yesterday. Isolated thunderstorms.

Today
High -- | Low -- °F
--% Chance of Precip.
Yesterday
High -- | Low -- °F
Precip. -- in
6:22 AM 8:37 PM
Waxing Crescent, 26% visible
Pressure 30.18 in
Visibility 10.0 miles
Clouds Clear
Dew Point 63 °F
Humidity 88%
Rainfall 0.00 in
Snow Depth Not available.
UV 4 out of 12
Pollen 6.60 out of 12
Air Quality Not available.
Flu Activity Not available.
METAR KAFJ 011335Z AUTO 00000KT 10SM CLR 19/17 A3018 RMK AO1

More Conditions Fewer Conditions

Pressure 30.18 in
Visibility 10.0 miles
Clouds Clear
Dew Point 63 °F
Humidity 88%
Rainfall 0.00 in
Snow Depth Not available.
UV 4 out of 12
Pollen 6.60 out of 12
Air Quality Not available.
Flu Activity Not available.
METAR KAFJ 011335Z AUTO 00000KT 10SM CLR 19/17 A3018 RMK AO1

More Conditions Fewer Conditions

10-Day Weather Forecast

Almanac

Astronomy

Aug. 01, 2014 Rise Set
Actual Time 6:22 AM EDT 8:37 PM EDT
Civil Twilight 5:52 AM EDT 9:07 PM EDT
Nautical Twilight 5:15 AM EDT 9:44 PM EDT
Astronomical Twilight 4:34 AM EDT 10:25 PM EDT
Moon 11:44 AM EDT 11:21 PM EDT
Length of Visible Light 15h 15m
Length of Day
14h 14m
Tomorrow will be 2m 0s shorter.
Waxing Crescent, 26% of the Moon is Illuminated
Today
Waxing Crescent
Aug 3
First Quarter
Aug 10
Full
Aug 17
Last Quarter
Aug 25
New

Today's Extremes

State Highs State Lows

Community

WunderPhotos

Upload Photos

1,739,557 photos uploaded!

Nearby

Snow Depth

Station Depth Elevation
No new snow has been reported.

Earthquake Activity

City Distance Mag. Time & Date
No recent earthquake activity has been reported nearby.
Minimum magnitude displayed is 2.5.

Coastal Water Temperatures

Place Temperature
No Stations Reporting

Nearby Weather Stations

Station Location Temp. Heat Index Dew Point Humidity Wind Precip. Elev Updated Type
Jerusalem, Jerusalem, OH 71.4 °F 72 °F 65 °F 81% SW  at  2.0 mph 0.00 in / hr 1253 ft 9:39 AM EDT Normal
Shadyside, Ohio, Shadyside, OH 65.9 °F - 64 °F 95% SW  at  0.0 mph 0.00 in / hr 669 ft 9:39 AM EDT Rapid Fire
Crawford Heights, Martins Ferry, OH 70.9 °F 71 °F 64 °F 80% SSE  at  3.7 mph - / hr 1109 ft 9:38 AM EDT Normal
Kidwell, WV, Sistersville, WV 72.1 °F 73 °F 65 °F 79% East  at  0.0 mph - / hr 738 ft 9:25 AM EDT Normal
Whitmar Hills, Wheeling, WV 66.4 °F - 66 °F 100% ENE  at  0.0 mph 0.00 in / hr 1060 ft 9:35 AM EDT Normal

Show More Stations Show Fewer Stations